Time;durP1;ratioP1;P1;durP2;ratioP2;P2;SDS_P1;SDS_P2;PMS_P1;PMS_P2;Temp;Humidity;BMP_temperature;BMP_pressure;BME280_temperature;BME280_humidity;BME280_pressure;Samples;Min_cycle;Max_cycle;Signal;HPM_P1;HPM_P2
2024/01/06 00:00:28;;;;;;;1.10;1.00;;;3.30;99.90;;;;;;5056836;28;20501;-72
2024/01/06 00:02:54;;;;;;;1.10;1.00;;;3.30;99.90;;;;;;5056811;28;20045;-71
2024/01/06 00:05:20;;;;;;;2.03;1.88;;;3.30;99.90;;;;;;5056633;28;20038;-72
2024/01/06 00:07:45;;;;;;;1.10;1.00;;;3.30;99.90;;;;;;5056739;28;20180;-72
2024/01/06 00:10:11;;;;;;;1.20;1.10;;;3.30;99.90;;;;;;5056605;28;20052;-71
2024/01/06 00:12:36;;;;;;;1.45;1.35;;;3.30;99.90;;;;;;5056646;28;20044;-71
2024/01/06 00:15:03;;;;;;;0.90;0.90;;;3.20;99.90;;;;;;5056774;28;20491;-72
2024/01/06 00:17:28;;;;;;;1.40;1.30;;;3.20;99.90;;;;;;5056464;28;20180;-71
2024/01/06 00:19:54;;;;;;;1.10;1.00;;;3.20;99.90;;;;;;5056455;28;20125;-73
2024/01/06 00:22:20;;;;;;;1.20;1.10;;;3.10;99.90;;;;;;5056344;28;20060;-71
2024/01/06 00:24:46;;;;;;;1.35;1.25;;;3.10;99.90;;;;;;5056527;28;20041;-73
2024/01/06 00:27:13;;;;;;;1.20;1.10;;;3.10;99.90;;;;;;5056359;28;20045;-71
2024/01/06 00:29:38;;;;;;;;;;;3.10;99.90;;;;;;5056703;28;20044;-72
2024/01/06 00:32:05;;;;;;;1.10;1.00;;;3.10;99.90;;;;;;5056114;28;19974;-72
2024/01/06 00:34:30;;;;;;;1.10;1.00;;;3.10;99.90;;;;;;5056156;28;20084;-71
2024/01/06 00:36:56;;;;;;;1.55;1.10;;;3.10;99.90;;;;;;5056183;28;20319;-72
2024/01/06 00:39:21;;;;;;;1.10;1.00;;;3.10;99.90;;;;;;5056540;28;20051;-72
2024/01/06 00:41:47;;;;;;;1.20;1.10;;;3.00;99.90;;;;;;5056104;28;20373;-72
2024/01/06 00:44:12;;;;;;;1.10;1.00;;;3.10;99.90;;;;;;5054749;28;20057;-71
2024/01/06 00:46:39;;;;;;;1.23;1.13;;;3.10;99.90;;;;;;5056085;28;20033;-72
2024/01/06 00:49:05;;;;;;;1.00;1.00;;;3.00;99.90;;;;;;5055893;28;20056;-73
2024/01/06 00:51:31;;;;;;;1.10;1.00;;;3.00;99.90;;;;;;5055806;28;20489;-73
2024/01/06 00:53:56;;;;;;;1.25;1.15;;;3.00;99.90;;;;;;5056050;28;20045;-72
2024/01/06 00:56:22;;;;;;;1.10;1.00;;;3.00;99.90;;;;;;5055752;28;20562;-73
2024/01/06 00:58:48;;;;;;;1.10;1.00;;;2.90;99.90;;;;;;5055812;28;20424;-72
2024/01/06 01:01:13;;;;;;;3.63;3.10;;;2.90;99.90;;;;;;5055686;28;20132;-71
2024/01/06 01:03:39;;;;;;;1.02;1.00;;;2.80;99.90;;;;;;5055707;28;20087;-71
2024/01/06 01:06:05;;;;;;;1.20;1.10;;;2.80;99.90;;;;;;5055310;28;20503;-72
2024/01/06 01:08:30;;;;;;;1.10;1.00;;;2.80;99.90;;;;;;5055572;28;20052;-73
2024/01/06 01:10:56;;;;;;;0.90;0.90;;;2.70;99.90;;;;;;5055490;28;20055;-71
2024/01/06 01:13:22;;;;;;;1.20;1.10;;;2.70;99.90;;;;;;5055443;28;20488;-73
2024/01/06 01:15:48;;;;;;;1.20;1.10;;;2.70;99.90;;;;;;5055413;28;20059;-73
2024/01/06 01:18:14;;;;;;;1.20;1.10;;;2.60;99.90;;;;;;5055426;28;20484;-71
2024/01/06 01:20:41;;;;;;;1.00;1.00;;;2.60;99.90;;;;;;5055260;28;20041;-71
2024/01/06 01:23:07;;;;;;;1.30;1.20;;;2.70;99.90;;;;;;5055235;28;20045;-71
2024/01/06 01:25:33;;;;;;;1.30;1.20;;;2.70;99.90;;;;;;5055129;28;20060;-72
2024/01/06 01:27:59;;;;;;;1.10;1.00;;;2.70;99.90;;;;;;5055173;28;20041;-72
2024/01/06 01:30:24;;;;;;;1.10;1.00;;;2.60;99.90;;;;;;5055170;28;20048;-71
2024/01/06 01:32:50;;;;;;;1.10;1.00;;;2.60;99.90;;;;;;5055078;28;20366;-72
2024/01/06 01:35:16;;;;;;;1.10;1.00;;;2.60;99.90;;;;;;5054936;28;20183;-71
2024/01/06 01:37:41;;;;;;;1.77;1.67;;;2.60;99.90;;;;;;5055046;28;20045;-72
2024/01/06 01:40:07;;;;;;;1.20;1.10;;;2.60;99.90;;;;;;5055004;28;20056;-71
2024/01/06 01:42:33;;;;;;;1.30;1.20;;;2.60;99.90;;;;;;5054607;28;20480;-71
2024/01/06 01:44:59;;;;;;;1.10;1.00;;;2.50;99.90;;;;;;5054921;28;20049;-71
2024/01/06 01:47:25;;;;;;;2.20;2.03;;;2.60;99.90;;;;;;5054783;28;20037;-72
2024/01/06 01:49:54;;;;;;;1.38;1.27;;;2.60;99.90;;;;;;5054645;28;20052;-71
2024/01/06 01:52:20;;;;;;;1.20;1.10;;;2.50;99.90;;;;;;5054712;28;20389;-72
2024/01/06 01:54:46;;;;;;;1.42;1.33;;;2.50;99.90;;;;;;5054477;28;20037;-71
2024/01/06 01:57:13;;;;;;;1.30;1.20;;;2.50;99.90;;;;;;5054640;28;20076;-71
2024/01/06 01:59:39;;;;;;;1.10;1.00;;;2.50;99.90;;;;;;5036824;28;20414;-71
2024/01/06 02:02:06;;;;;;;1.10;1.00;;;2.50;99.90;;;;;;5054683;28;20041;-73
2024/01/06 02:04:32;;;;;;;1.40;1.30;;;2.40;99.90;;;;;;5054322;28;20326;-72
2024/01/06 02:06:57;;;;;;;1.20;1.10;;;2.40;99.90;;;;;;5055233;28;20587;-72
2024/01/06 02:09:26;;;;;;;1.20;1.10;;;2.40;99.90;;;;;;5054459;28;20117;-72
2024/01/06 02:11:52;;;;;;;1.20;1.10;;;2.30;99.90;;;;;;5054344;28;20117;-72
2024/01/06 02:14:18;;;;;;;1.20;1.10;;;2.30;99.90;;;;;;5054344;28;20532;-72
2024/01/06 02:16:44;;;;;;;2.65;2.45;;;2.20;99.90;;;;;;5054269;28;20072;-71
2024/01/06 02:19:12;;;;;;;1.20;1.10;;;2.30;99.90;;;;;;5052756;28;20045;-72
2024/01/06 02:21:42;;;;;;;2.53;2.30;;;2.30;99.90;;;;;;5054610;28;20048;-71
2024/01/06 02:24:07;;;;;;;1.20;1.10;;;2.30;99.90;;;;;;5054073;28;20040;-72
2024/01/06 02:26:33;;;;;;;1.30;1.20;;;2.30;99.90;;;;;;5036895;28;20041;-72
2024/01/06 02:28:59;;;;;;;1.17;1.08;;;2.30;99.90;;;;;;5054266;28;20056;-71
2024/01/06 02:31:24;;;;;;;2.13;2.03;;;2.30;99.90;;;;;;5053968;28;20048;-71
2024/01/06 02:33:50;;;;;;;1.20;1.10;;;2.30;99.90;;;;;;5053969;28;20084;-72
2024/01/06 02:36:15;;;;;;;1.38;1.27;;;2.30;99.90;;;;;;5054333;28;20049;-72
2024/01/06 02:38:41;;;;;;;1.25;1.15;;;2.30;99.90;;;;;;5054297;28;20041;-71
2024/01/06 02:41:07;;;;;;;1.20;1.10;;;2.30;99.90;;;;;;5054057;28;20377;-72
2024/01/06 02:43:32;;;;;;;1.33;1.23;;;3.20;99.90;;;;;;5053942;28;20056;-71
2024/01/06 02:45:58;;;;;;;1.20;1.10;;;2.20;99.90;;;;;;5053882;28;20037;-71
2024/01/06 02:48:23;;;;;;;1.20;1.10;;;2.20;99.90;;;;;;5035972;28;20411;-72
2024/01/06 02:50:49;;;;;;;1.13;1.02;;;2.20;99.90;;;;;;5053758;28;20041;-72
2024/01/06 02:53:14;;;;;;;1.10;1.00;;;2.20;99.90;;;;;;5053703;28;20473;-71
2024/01/06 02:55:40;;;;;;;1.20;1.10;;;2.10;99.90;;;;;;5053713;28;20048;-71
2024/01/06 02:58:06;;;;;;;1.63;1.52;;;2.10;99.90;;;;;;5053681;28;20049;-72
2024/01/06 03:00:31;;;;;;;1.10;1.00;;;2.10;99.90;;;;;;5053667;28;20045;-72
2024/01/06 03:02:57;;;;;;;1.42;1.33;;;2.00;99.90;;;;;;5053618;28;20114;-71
2024/01/06 03:05:23;;;;;;;1.20;1.10;;;2.00;99.90;;;;;;5053495;28;20048;-71
2024/01/06 03:07:48;;;;;;;2.22;2.03;;;2.20;99.90;;;;;;5052923;28;20492;-72
2024/01/06 03:10:14;;;;;;;1.20;1.10;;;3.40;99.90;;;;;;5053553;28;20047;-71
2024/01/06 03:12:40;;;;;;;2.65;2.45;;;1.90;99.90;;;;;;5053762;28;20045;-71
2024/01/06 03:15:06;;;;;;;1.60;1.50;;;1.90;99.90;;;;;;5053197;28;20534;-71
2024/01/06 03:17:32;;;;;;;1.60;1.50;;;1.90;99.90;;;;;;5035709;28;20044;-72
2024/01/06 03:19:57;;;;;;;1.10;1.00;;;1.90;99.90;;;;;;5053322;28;20048;-71
2024/01/06 03:22:23;;;;;;;1.20;1.10;;;1.90;99.90;;;;;;5053321;28;20051;-72
2024/01/06 03:24:49;;;;;;;1.42;1.33;;;1.90;99.90;;;;;;5053247;28;20123;-72
2024/01/06 03:27:14;;;;;;;2.30;2.20;;;1.90;99.90;;;;;;5053637;28;20049;-71
2024/01/06 03:29:40;;;;;;;1.20;1.10;;;1.90;99.90;;;;;;5053340;28;20048;-72
2024/01/06 03:32:06;;;;;;;1.20;1.10;;;1.90;99.90;;;;;;5053130;28;20056;-71
2024/01/06 03:34:32;;;;;;;1.20;1.10;;;1.90;99.90;;;;;;5053221;28;20496;-71
2024/01/06 03:36:57;;;;;;;1.20;1.10;;;1.90;99.90;;;;;;5053484;28;20041;-71
2024/01/06 03:39:23;;;;;;;1.10;1.00;;;1.90;99.90;;;;;;5053281;28;20512;-71
2024/01/06 03:41:49;;;;;;;1.45;1.35;;;1.90;99.90;;;;;;5053341;28;20040;-72
2024/01/06 03:44:14;;;;;;;1.20;1.10;;;1.80;99.90;;;;;;5053271;28;20060;-72
2024/01/06 03:46:40;;;;;;;1.20;1.10;;;1.80;99.90;;;;;;5053160;28;20590;-72
2024/01/06 03:49:06;;;;;;;1.20;1.10;;;1.70;99.90;;;;;;5053133;28;20045;-72
2024/01/06 03:51:31;;;;;;;3.17;2.97;;;1.60;99.90;;;;;;5053524;28;20051;-71
2024/01/06 03:53:57;;;;;;;1.20;1.10;;;1.70;99.90;;;;;;5053105;28;20041;-71
2024/01/06 03:56:22;;;;;;;1.23;1.13;;;1.70;99.90;;;;;;5053154;28;20037;-71
2024/01/06 03:58:48;;;;;;;1.40;1.30;;;1.70;99.90;;;;;;5053127;28;20539;-71
2024/01/06 04:01:14;;;;;;;1.20;1.10;;;1.70;99.90;;;;;;5053135;28;20400;-71
2024/01/06 04:03:42;;;;;;;1.20;1.10;;;1.70;99.90;;;;;;5052959;28;20041;-71
2024/01/06 04:06:09;;;;;;;1.10;1.00;;;1.70;99.90;;;;;;5053471;28;20094;-71
2024/01/06 04:08:36;;;;;;;1.10;1.00;;;1.70;99.90;;;;;;5052891;28;20438;-71
2024/01/06 04:11:02;;;;;;;1.10;1.00;;;1.70;99.90;;;;;;5052961;28;20082;-71
2024/01/06 04:13:28;;;;;;;2.35;2.17;;;1.70;99.90;;;;;;5053006;28;20048;-71
2024/01/06 04:15:53;;;;;;;3.33;1.10;;;1.70;99.90;;;;;;5052898;28;20037;-71
2024/01/06 04:18:19;;;;;;;1.25;1.15;;;1.70;99.90;;;;;;5035162;28;20044;-71
2024/01/06 04:20:45;;;;;;;1.20;1.10;;;1.70;99.90;;;;;;5056136;28;20045;-71
2024/01/06 04:23:10;;;;;;;1.20;1.10;;;1.70;99.90;;;;;;5056506;28;20041;-72
2024/01/06 04:25:36;;;;;;;1.30;1.20;;;2.20;99.90;;;;;;5038940;28;20404;-72
2024/01/06 04:28:01;;;;;;;1.52;1.42;;;1.70;99.90;;;;;;5056352;28;20095;-71
2024/01/06 04:30:27;;;;;;;1.10;1.00;;;1.70;99.90;;;;;;5056354;28;20051;-71
2024/01/06 04:32:53;;;;;;;1.20;1.10;;;1.70;99.90;;;;;;5056256;28;20077;-71
2024/01/06 04:35:20;;;;;;;1.15;1.00;;;1.70;99.90;;;;;;5056666;28;20037;-72
2024/01/06 04:37:47;;;;;;;1.10;1.00;;;1.70;99.90;;;;;;5056188;28;20084;-72
2024/01/06 04:40:12;;;;;;;1.10;1.00;;;1.70;99.90;;;;;;5056137;28;20441;-70
2024/01/06 04:42:38;;;;;;;1.30;1.20;;;1.70;99.90;;;;;;5055888;28;20204;-72
2024/01/06 04:45:04;;;;;;;1.52;1.42;;;1.60;99.90;;;;;;5056066;28;20049;-72
2024/01/06 04:47:30;;;;;;;4.90;3.00;;;1.70;99.90;;;;;;5055889;28;20039;-71
2024/01/06 04:49:56;;;;;;;1.30;1.20;;;1.70;99.90;;;;;;5055944;28;20082;-72
2024/01/06 04:52:22;;;;;;;1.20;1.10;;;1.70;99.90;;;;;;5055835;28;20110;-71
2024/01/06 04:54:48;;;;;;;1.20;1.10;;;1.70;99.90;;;;;;5055887;28;20048;-71
2024/01/06 04:57:14;;;;;;;1.10;1.00;;;1.70;99.90;;;;;;5055870;28;20041;-71
2024/01/06 04:59:40;;;;;;;2.25;2.08;;;1.70;99.90;;;;;;5055688;28;20481;-71
2024/01/06 05:02:06;;;;;;;1.10;1.00;;;1.70;99.90;;;;;;5055615;28;20057;-72
2024/01/06 05:04:32;;;;;;;1.10;1.00;;;1.70;99.90;;;;;;5056066;28;20053;-72
2024/01/06 05:06:58;;;;;;;1.63;1.52;;;1.60;99.90;;;;;;5055631;28;20130;-72
2024/01/06 05:09:25;;;;;;;1.20;1.10;;;1.60;99.90;;;;;;5055766;28;20084;-71
2024/01/06 05:11:50;;;;;;;1.65;1.20;;;1.60;99.90;;;;;;5055805;28;20049;-71
2024/01/06 05:14:16;;;;;;;1.10;1.00;;;1.60;99.90;;;;;;5055543;28;20045;-71
2024/01/06 05:16:42;;;;;;;1.20;1.10;;;1.60;99.90;;;;;;5054275;28;20056;-71
2024/01/06 05:19:07;;;;;;;1.10;1.00;;;1.60;99.90;;;;;;5055386;28;20067;-72
2024/01/06 05:21:34;;;;;;;1.10;1.00;;;1.60;99.90;;;;;;5055385;28;20548;-71
2024/01/06 05:24:00;;;;;;;1.10;1.00;;;1.60;99.90;;;;;;5055569;28;20128;-71
2024/01/06 05:26:25;;;;;;;1.20;1.10;;;1.70;99.90;;;;;;5055511;28;20123;-71
2024/01/06 05:28:52;;;;;;;1.20;1.10;;;1.70;99.90;;;;;;5055243;28;20481;-71
2024/01/06 05:31:17;;;;;;;1.15;1.05;;;1.70;99.90;;;;;;5054672;28;20098;-71
2024/01/06 05:33:43;;;;;;;1.20;1.10;;;1.70;99.90;;;;;;5055065;28;20063;-72
2024/01/06 05:36:09;;;;;;;1.10;1.00;;;2.90;99.90;;;;;;5055086;28;20037;-71
2024/01/06 05:38:35;;;;;;;1.10;1.00;;;1.60;99.90;;;;;;5054970;28;20465;-71
2024/01/06 05:41:02;;;;;;;1.30;1.20;;;1.60;99.90;;;;;;5054916;28;20493;-71
2024/01/06 05:43:27;;;;;;;1.17;1.08;;;2.00;99.90;;;;;;5054830;28;20088;-70
2024/01/06 05:45:53;;;;;;;1.20;1.10;;;1.60;99.90;;;;;;5054909;28;20475;-71
2024/01/06 05:48:18;;;;;;;1.10;1.00;;;1.60;99.90;;;;;;5054739;28;20049;-71
2024/01/06 05:50:44;;;;;;;1.10;1.00;;;1.60;99.90;;;;;;5054869;28;20049;-72
2024/01/06 05:53:10;;;;;;;3.55;3.25;;;1.60;99.90;;;;;;5054456;28;20049;-71
2024/01/06 05:55:36;;;;;;;1.10;1.00;;;1.60;99.90;;;;;;5054743;28;20060;-71
2024/01/06 05:58:02;;;;;;;1.17;1.08;;;1.60;99.90;;;;;;5054661;28;20037;-72
2024/01/06 06:00:27;;;;;;;1.20;1.10;;;1.60;99.90;;;;;;5055142;28;20131;-71
2024/01/06 06:02:53;;;;;;;1.10;1.00;;;1.70;99.90;;;;;;5054546;28;20049;-71
2024/01/06 06:05:20;;;;;;;6.63;3.15;;;1.50;99.90;;;;;;5054150;28;20496;-71
2024/01/06 06:07:45;;;;;;;1.10;1.00;;;1.50;99.90;;;;;;5054419;28;20055;-71
2024/01/06 06:10:11;;;;;;;1.20;1.10;;;1.50;99.90;;;;;;5054438;28;20131;-71
2024/01/06 06:12:38;;;;;;;1.10;1.00;;;1.50;99.90;;;;;;5054403;28;20045;-70
2024/01/06 06:15:05;;;;;;;1.20;1.10;;;1.50;99.90;;;;;;5053997;28;20554;-73
2024/01/06 06:17:31;;;;;;;1.70;1.13;;;1.50;99.90;;;;;;5054111;28;20053;-70
2024/01/06 06:19:58;;;;;;;1.05;1.00;;;1.50;99.90;;;;;;5054631;28;20049;-71
2024/01/06 06:22:26;;;;;;;1.20;1.10;;;1.40;99.90;;;;;;5054218;28;20045;-74
2024/01/06 06:24:52;;;;;;;1.10;1.00;;;1.40;99.90;;;;;;5054070;28;20484;-73
2024/01/06 06:27:18;;;;;;;1.48;1.38;;;1.50;99.90;;;;;;5054443;28;20123;-71
2024/01/06 06:29:43;;;;;;;1.45;1.35;;;1.40;99.90;;;;;;5054257;28;20124;-71
2024/01/06 06:32:09;;;;;;;1.10;1.00;;;1.50;99.90;;;;;;5053963;28;20044;-70
2024/01/06 06:34:34;;;;;;;1.20;1.10;;;1.50;99.90;;;;;;5054016;28;20473;-70
2024/01/06 06:37:00;;;;;;;1.10;1.00;;;1.40;99.90;;;;;;5053956;28;20053;-70
2024/01/06 06:39:27;;;;;;;1.30;1.20;;;1.40;99.90;;;;;;5053914;28;20041;-72
2024/01/06 06:41:52;;;;;;;1.27;1.17;;;1.40;99.90;;;;;;5053160;28;20049;-73
2024/01/06 06:44:18;;;;;;;1.27;1.17;;;1.40;99.90;;;;;;5053990;28;20053;-73
2024/01/06 06:46:43;;;;;;;2.10;2.00;;;1.40;99.90;;;;;;5053761;28;20057;-73
2024/01/06 06:49:09;;;;;;;1.10;1.00;;;1.40;99.90;;;;;;5053846;28;20051;-72
2024/01/06 06:51:35;;;;;;;1.13;1.02;;;1.40;99.90;;;;;;5053742;28;20049;-73
2024/01/06 06:54:00;;;;;;;1.10;1.00;;;1.30;99.90;;;;;;5053803;28;20037;-74
2024/01/06 06:56:26;;;;;;;1.10;1.00;;;1.30;99.90;;;;;;5053807;28;20037;-73
2024/01/06 06:58:52;;;;;;;1.15;1.05;;;1.30;99.90;;;;;;5053664;28;20136;-72
2024/01/06 07:01:18;;;;;;;1.10;1.00;;;1.30;99.90;;;;;;5053531;28;20049;-71
2024/01/06 07:03:43;;;;;;;1.10;1.00;;;1.30;99.90;;;;;;5053501;28;20843;-71
2024/01/06 07:06:13;;;;;;;1.10;1.00;;;1.30;99.90;;;;;;5054166;28;20049;-73
2024/01/06 07:08:38;;;;;;;1.20;1.10;;;1.30;99.90;;;;;;5053541;28;20049;-73
2024/01/06 07:11:04;;;;;;;1.10;1.00;;;1.30;99.90;;;;;;5053834;28;20102;-71
2024/01/06 07:13:30;;;;;;;1.20;1.10;;;1.30;99.90;;;;;;5053565;28;20053;-73
2024/01/06 07:15:55;;;;;;;1.48;1.38;;;1.30;99.90;;;;;;5053423;28;20049;-72
2024/01/06 07:18:23;;;;;;;1.20;1.10;;;1.30;99.90;;;;;;5053495;28;20047;-72
2024/01/06 07:20:49;;;;;;;2.67;2.47;;;1.20;99.90;;;;;;5053413;28;20041;-70
2024/01/06 07:23:14;;;;;;;2.30;2.17;;;1.20;99.90;;;;;;5053328;28;20102;-74
2024/01/06 07:25:40;;;;;;;1.10;1.00;;;1.20;99.90;;;;;;5053118;28;20370;-73
2024/01/06 07:28:08;;;;;;;1.20;1.10;;;2.30;99.90;;;;;;5053508;28;20041;-73
2024/01/06 07:30:33;;;;;;;1.20;1.10;;;1.20;99.90;;;;;;5053413;28;20388;-72
2024/01/06 07:32:59;;;;;;;1.10;1.00;;;1.20;99.90;;;;;;5053341;28;20107;-73
2024/01/06 07:35:24;;;;;;;1.10;1.00;;;1.20;99.90;;;;;;5053331;28;20041;-73
2024/01/06 07:37:50;;;;;;;1.40;1.30;;;1.10;99.90;;;;;;5053664;28;20051;-74
2024/01/06 07:40:16;;;;;;;1.20;1.10;;;1.10;99.90;;;;;;5035745;28;20574;-75
2024/01/06 07:42:42;;;;;;;1.20;1.10;;;1.10;99.90;;;;;;5053196;28;20110;-74
2024/01/06 07:45:08;;;;;;;2.40;2.25;;;1.10;99.90;;;;;;5053516;28;20080;-74
2024/01/06 07:47:38;;;;;;;1.20;1.10;;;1.10;99.90;;;;;;5053171;28;20041;-73
2024/01/06 07:50:05;;;;;;;1.30;1.20;;;1.10;99.90;;;;;;5053588;28;20053;-73
2024/01/06 07:52:30;;;;;;;3.05;2.85;;;1.10;99.90;;;;;;5053168;28;20129;-73
2024/01/06 07:54:56;;;;;;;1.17;1.08;;;1.10;99.90;;;;;;5056912;28;20535;-73
2024/01/06 07:57:21;;;;;;;1.20;1.10;;;1.10;99.90;;;;;;5057106;28;20127;-74
2024/01/06 07:59:47;;;;;;;1.20;1.10;;;1.10;99.90;;;;;;5056929;28;20064;-74
2024/01/06 08:02:12;;;;;;;1.20;1.10;;;1.20;99.90;;;;;;5056743;28;20120;-74
2024/01/06 08:04:38;;;;;;;1.20;1.10;;;1.10;99.90;;;;;;5056835;28;20103;-74
2024/01/06 08:07:04;;;;;;;1.20;1.10;;;1.20;99.90;;;;;;5056766;28;20041;-74
2024/01/06 08:09:29;;;;;;;1.20;1.10;;;1.20;99.90;;;;;;5059341;28;20051;-71
2024/01/06 08:11:55;;;;;;;1.20;1.10;;;1.20;99.90;;;;;;5076064;28;20043;-69
2024/01/06 08:14:20;;;;;;;1.20;1.10;;;1.20;99.90;;;;;;5076239;28;20052;-69
2024/01/06 08:16:46;;;;;;;1.17;1.08;;;1.20;99.90;;;;;;5075977;28;20432;-69
2024/01/06 08:19:12;;;;;;;1.50;1.40;;;1.20;99.90;;;;;;5076272;28;20111;-72
2024/01/06 08:21:37;;;;;;;1.20;1.10;;;1.20;99.90;;;;;;5076356;28;20048;-73
2024/01/06 08:24:03;;;;;;;1.20;1.10;;;1.20;99.90;;;;;;5075913;28;20123;-73
2024/01/06 08:26:29;;;;;;;1.20;1.10;;;1.20;99.90;;;;;;5076008;28;20040;-72
2024/01/06 08:28:54;;;;;;;1.20;1.10;;;1.20;99.90;;;;;;5076061;28;20053;-73
2024/01/06 08:31:20;;;;;;;1.20;1.10;;;1.20;99.90;;;;;;5075982;28;20039;-73
2024/01/06 08:33:46;;;;;;;1.20;1.10;;;1.20;99.90;;;;;;5075922;28;20128;-72
2024/01/06 08:36:11;;;;;;;1.20;1.10;;;1.20;99.90;;;;;;5075920;28;20052;-73
2024/01/06 08:38:37;;;;;;;1.75;1.65;;;1.60;99.90;;;;;;5076353;28;20045;-73
2024/01/06 08:41:03;;;;;;;1.20;1.10;;;1.20;99.90;;;;;;5075895;28;20407;-72
2024/01/06 08:43:28;;;;;;;1.40;1.30;;;1.10;99.90;;;;;;5075771;28;20190;-71
2024/01/06 08:45:54;;;;;;;1.20;1.10;;;1.20;99.90;;;;;;5075549;28;20051;-71
2024/01/06 08:48:21;;;;;;;1.20;1.10;;;1.20;99.90;;;;;;5075589;28;20127;-72
2024/01/06 08:50:46;;;;;;;1.17;1.08;;;1.20;99.90;;;;;;5075812;28;20044;-71
2024/01/06 08:53:12;;;;;;;1.10;1.00;;;1.20;99.90;;;;;;5075807;28;20040;-72
2024/01/06 08:55:38;;;;;;;1.20;1.10;;;1.20;99.90;;;;;;5075511;28;20106;-73
2024/01/06 08:58:03;;;;;;;1.30;1.20;;;1.20;99.90;;;;;;5075581;28;20052;-71
2024/01/06 09:00:29;;;;;;;1.20;1.10;;;1.30;99.90;;;;;;5075455;28;20427;-73
2024/01/06 09:02:55;;;;;;;1.30;1.20;;;1.20;99.90;;;;;;5075432;28;20048;-73
2024/01/06 09:05:20;;;;;;;1.30;1.20;;;1.20;99.90;;;;;;5074667;28;20424;-74
2024/01/06 09:07:49;;;;;;;1.30;1.20;;;1.30;99.90;;;;;;5075537;28;20094;-75
2024/01/06 09:10:19;;;;;;;1.10;1.00;;;1.30;99.90;;;;;;5075414;28;20099;-77
2024/01/06 09:12:44;;;;;;;3.33;3.13;;;1.20;99.90;;;;;;5075482;28;20044;-73
2024/01/06 09:15:10;;;;;;;1.67;1.58;;;1.30;99.90;;;;;;5074978;28;20110;-80
2024/01/06 09:17:36;;;;;;;1.20;1.10;;;1.30;99.90;;;;;;5075343;28;20123;-77
2024/01/06 09:20:02;;;;;;;1.20;1.10;;;1.30;99.90;;;;;;5057480;28;20052;-78
2024/01/06 09:22:28;;;;;;;1.20;1.10;;;1.30;99.90;;;;;;5074909;28;20080;-72
2024/01/06 09:24:54;;;;;;;1.20;1.10;;;1.20;99.90;;;;;;5075062;28;20083;-72
2024/01/06 09:27:19;;;;;;;1.20;1.10;;;1.30;99.90;;;;;;5075163;28;20082;-76
2024/01/06 09:29:45;;;;;;;1.30;1.20;;;1.50;99.90;;;;;;5074747;28;20457;-72
2024/01/06 09:32:11;;;;;;;1.20;1.10;;;1.30;99.90;;;;;;5075042;28;20048;-71
2024/01/06 09:34:37;;;;;;;1.17;1.08;;;1.30;99.90;;;;;;5074925;28;20123;-74
2024/01/06 09:37:03;;;;;;;1.20;1.10;;;1.40;99.90;;;;;;5074904;28;20087;-75
2024/01/06 09:39:30;;;;;;;1.10;1.00;;;1.40;99.90;;;;;;5074984;28;20076;-71
2024/01/06 09:41:56;;;;;;;1.10;1.00;;;1.40;99.90;;;;;;5074816;28;20091;-71
2024/01/06 09:44:21;;;;;;;1.20;1.10;;;1.40;99.90;;;;;;5074455;28;20090;-73
2024/01/06 09:46:49;;;;;;;1.35;1.25;;;1.40;99.90;;;;;;5056827;28;20044;-73
2024/01/06 09:49:16;;;;;;;1.20;1.10;;;1.40;99.90;;;;;;5074586;28;20044;-72
2024/01/06 09:51:42;;;;;;;1.20;1.10;;;1.40;99.90;;;;;;5074528;28;20506;-72
2024/01/06 09:54:13;;;;;;;1.20;1.10;;;1.40;99.90;;;;;;5074568;28;20036;-72
2024/01/06 09:56:39;;;;;;;1.15;1.05;;;1.40;99.90;;;;;;5074540;28;20080;-72
2024/01/06 09:59:05;;;;;;;1.13;1.03;;;1.40;99.90;;;;;;5074155;28;20049;-72
2024/01/06 10:01:31;;;;;;;1.17;1.08;;;1.40;99.90;;;;;;5074499;28;20301;-72
2024/01/06 10:03:56;;;;;;;1.20;1.10;;;1.40;99.90;;;;;;5074439;28;20179;-72
2024/01/06 10:06:22;;;;;;;1.10;1.00;;;1.40;99.90;;;;;;5074367;28;20044;-72
2024/01/06 10:08:52;;;;;;;1.30;1.20;;;1.40;99.90;;;;;;5074113;28;20477;-72
2024/01/06 10:11:22;;;;;;;1.20;1.10;;;1.40;99.90;;;;;;5074250;28;20048;-72
2024/01/06 10:13:51;;;;;;;1.10;1.00;;;1.40;99.90;;;;;;5073841;28;20092;-72
2024/01/06 10:16:17;;;;;;;2.20;2.00;;;1.30;99.90;;;;;;5074197;28;20047;-72
2024/01/06 10:18:44;;;;;;;1.40;1.30;;;1.30;99.90;;;;;;5074027;28;20121;-71
2024/01/06 10:21:10;;;;;;;1.20;1.10;;;1.30;99.90;;;;;;5074309;28;20439;-73
2024/01/06 10:23:36;;;;;;;1.17;1.08;;;1.30;99.90;;;;;;5073984;28;20091;-71
2024/01/06 10:26:03;;;;;;;1.20;1.10;;;1.30;99.90;;;;;;5073698;28;20416;-72
2024/01/06 10:28:28;;;;;;;1.20;1.10;;;1.30;99.90;;;;;;5073660;28;20043;-72
2024/01/06 10:30:56;;;;;;;1.30;1.20;;;1.30;99.90;;;;;;5073898;28;20430;-72
2024/01/06 10:33:26;;;;;;;1.30;1.20;;;1.30;99.90;;;;;;5073852;28;20052;-72
2024/01/06 10:35:54;;;;;;;1.20;1.10;;;1.30;99.90;;;;;;5073892;28;20058;-72
2024/01/06 10:38:20;;;;;;;1.20;1.10;;;1.30;99.90;;;;;;5073875;28;20360;-72
2024/01/06 10:41:00;;;;;;;1.20;1.10;;;1.30;99.90;;;;;;5073752;28;20037;-72
2024/01/06 10:43:30;;;;;;;1.20;1.10;;;1.30;99.90;;;;;;5073525;28;20110;-73
2024/01/06 10:45:59;;;;;;;7.65;5.57;;;1.30;99.90;;;;;;5073707;28;20072;-72
2024/01/06 10:48:26;;;;;;;2.00;1.88;;;1.30;99.90;;;;;;5073654;28;20044;-73
2024/01/06 10:50:53;;;;;;;1.20;1.10;;;1.30;99.90;;;;;;5073362;28;20048;-73
2024/01/06 10:53:20;;;;;;;1.30;1.20;;;1.30;99.90;;;;;;5073187;28;20036;-72
2024/01/06 10:55:46;;;;;;;;;;;1.30;99.90;;;;;;5073955;28;20037;-73
2024/01/06 10:58:16;;;;;;;1.30;1.20;;;1.30;99.90;;;;;;5073400;28;19924;-72
2024/01/06 11:00:41;;;;;;;1.30;1.20;;;1.30;99.90;;;;;;5073574;28;20097;-72
2024/01/06 11:03:09;;;;;;;1.27;1.17;;;1.20;99.90;;;;;;5073508;28;20040;-72
2024/01/06 11:05:36;;;;;;;1.10;1.00;;;1.30;99.90;;;;;;5073082;28;20496;-72
2024/01/06 11:08:03;;;;;;;;;;;1.20;99.90;;;;;;5073778;28;20042;-73
2024/01/06 11:10:30;;;;;;;2.40;1.40;;;1.20;99.90;;;;;;5073426;28;20030;-72
2024/01/06 11:13:13;;;;;;;1.20;1.10;;;1.60;99.90;;;;;;5073032;28;20048;-72
2024/01/06 11:15:43;;;;;;;1.30;1.20;;;1.20;99.90;;;;;;5073404;28;20079;-73
2024/01/06 11:18:09;;;;;;;1.60;1.50;;;1.20;99.90;;;;;;5055595;28;20049;-72
2024/01/06 11:20:34;;;;;;;1.20;1.10;;;1.30;99.90;;;;;;5072884;28;20396;-72
2024/01/06 11:23:20;;;;;;;1.65;1.55;;;1.30;99.90;;;;;;5073452;28;20048;-72
2024/01/06 11:25:46;;;;;;;1.70;1.60;;;1.30;99.90;;;;;;5073029;28;20116;-72
2024/01/06 11:28:12;;;;;;;1.20;1.10;;;1.30;99.90;;;;;;5074261;28;20125;-72
2024/01/06 11:30:40;;;;;;;1.30;1.20;;;1.30;99.90;;;;;;5077442;28;20430;-72
2024/01/06 11:33:05;;;;;;;2.10;2.00;;;1.30;99.90;;;;;;5077186;28;20055;-72
2024/01/06 11:35:31;;;;;;;1.20;1.10;;;1.30;99.90;;;;;;5077201;28;20044;-72
2024/01/06 11:38:00;;;;;;;2.78;2.58;;;1.30;99.90;;;;;;5077258;28;20548;-72
2024/01/06 11:40:33;;;;;;;1.20;1.10;;;1.30;99.90;;;;;;5076977;28;20551;-72
2024/01/06 11:43:07;;;;;;;1.55;1.45;;;1.20;99.90;;;;;;5077016;28;20060;-73
2024/01/06 11:45:34;;;;;;;1.10;1.00;;;1.30;99.90;;;;;;5077002;28;20044;-72
2024/01/06 11:48:03;;;;;;;1.20;1.10;;;1.30;99.90;;;;;;5076603;28;20041;-72
2024/01/06 11:50:32;;;;;;;1.20;1.10;;;1.30;99.90;;;;;;5076893;28;20041;-77
2024/01/06 11:52:59;;;;;;;1.48;1.38;;;1.30;99.90;;;;;;5084710;28;20037;-72
2024/01/06 11:55:29;;;;;;;1.30;1.20;;;1.30;99.90;;;;;;5077793;28;20054;-73
2024/01/06 11:57:56;;;;;;;1.20;1.10;;;1.30;99.90;;;;;;5081308;28;20049;-74
2024/01/06 12:00:22;;;;;;;1.30;1.20;;;1.30;99.90;;;;;;5079019;28;20049;-72
2024/01/06 12:02:47;;;;;;;1.20;1.10;;;1.30;99.90;;;;;;5076982;28;20045;-73
2024/01/06 12:05:15;;;;;;;1.20;1.10;;;1.30;99.90;;;;;;5076559;28;20080;-72
2024/01/06 12:07:42;;;;;;;1.30;1.20;;;1.40;99.90;;;;;;5076671;28;20032;-74
2024/01/06 12:10:08;;;;;;;1.73;1.63;;;1.30;99.90;;;;;;5076179;28;20074;-73
2024/01/06 12:12:34;;;;;;;1.30;1.20;;;1.30;99.90;;;;;;5076267;28;20090;-72
2024/01/06 12:14:59;;;;;;;1.67;1.58;;;1.30;99.90;;;;;;5076287;28;20088;-75
2024/01/06 12:17:29;;;;;;;1.10;1.00;;;1.30;99.90;;;;;;5076486;28;20059;-73
2024/01/06 12:19:55;;;;;;;5.80;5.32;;;1.30;99.90;;;;;;5076441;28;20127;-73
2024/01/06 12:22:21;;;;;;;1.30;1.20;;;1.30;99.90;;;;;;5076383;28;20040;-73
2024/01/06 12:24:50;;;;;;;1.52;1.42;;;1.30;99.90;;;;;;5058392;28;20047;-72
2024/01/06 12:27:17;;;;;;;1.20;1.10;;;1.30;99.90;;;;;;5076299;28;20048;-74
2024/01/06 12:29:43;;;;;;;1.50;1.40;;;1.30;99.90;;;;;;5076040;28;20072;-73
2024/01/06 12:32:14;;;;;;;1.20;1.10;;;1.40;99.90;;;;;;5076157;28;20471;-72
2024/01/06 12:34:39;;;;;;;2.38;2.22;;;1.40;99.90;;;;;;5076359;28;20072;-73
2024/01/06 12:37:07;;;;;;;1.30;1.20;;;1.40;99.90;;;;;;5075924;28;20083;-73
2024/01/06 12:39:33;;;;;;;1.20;1.10;;;1.40;99.90;;;;;;5074482;28;20503;-73
2024/01/06 12:42:00;;;;;;;4.00;3.70;;;1.30;99.90;;;;;;5075935;28;20041;-72
2024/01/06 12:44:27;;;;;;;1.30;1.20;;;1.30;99.90;;;;;;5076086;28;20068;-74
2024/01/06 12:46:53;;;;;;;1.20;1.10;;;1.40;99.90;;;;;;5075942;28;20120;-73
2024/01/06 12:49:19;;;;;;;1.20;1.10;;;1.40;99.90;;;;;;5075983;28;20048;-73
2024/01/06 12:51:44;;;;;;;1.20;1.10;;;1.40;99.90;;;;;;5075884;28;20058;-73